sensor_id;sensor_type;location;lat;lon;timestamp;temperature;humidity
47791;DHT22;33547;49.044;1.156;2023-03-19T00:15:40;10.80;99.90
47791;DHT22;33547;49.044;1.156;2023-03-19T00:18:30;10.80;99.90
47791;DHT22;33547;49.044;1.156;2023-03-19T00:21:11;10.80;99.90
47791;DHT22;33547;49.044;1.156;2023-03-19T00:34:57;11.00;99.90
47791;DHT22;33547;49.044;1.156;2023-03-19T01:02:51;10.90;99.90
47791;DHT22;33547;49.044;1.156;2023-03-19T01:09:30;11.10;99.90
47791;DHT22;33547;49.044;1.156;2023-03-19T01:30:34;11.00;99.90
47791;DHT22;33547;49.044;1.156;2023-03-19T01:36:48;11.20;99.90
47791;DHT22;33547;49.044;1.156;2023-03-19T02:49:04;11.20;99.90
47791;DHT22;33547;49.044;1.156;2023-03-19T03:11:05;11.20;99.90
47791;DHT22;33547;49.044;1.156;2023-03-19T03:17:32;11.10;99.90
47791;DHT22;33547;49.044;1.156;2023-03-19T03:29:33;10.90;99.90
47791;DHT22;33547;49.044;1.156;2023-03-19T04:07:50;10.50;99.90
47791;DHT22;33547;49.044;1.156;2023-03-19T04:16:39;10.40;99.90
47791;DHT22;33547;49.044;1.156;2023-03-19T04:51:04;9.00;99.90
47791;DHT22;33547;49.044;1.156;2023-03-19T04:53:29;8.80;99.90
47791;DHT22;33547;49.044;1.156;2023-03-19T06:01:57;9.50;99.90
47791;DHT22;33547;49.044;1.156;2023-03-19T06:23:37;9.80;99.90
47791;DHT22;33547;49.044;1.156;2023-03-19T06:26:25;9.80;99.90
47791;DHT22;33547;49.044;1.156;2023-03-19T06:32:27;9.70;99.90
47791;DHT22;33547;49.044;1.156;2023-03-19T06:57:05;9.90;99.90
47791;DHT22;33547;49.044;1.156;2023-03-19T06:59:49;9.90;99.90
47791;DHT22;33547;49.044;1.156;2023-03-19T07:08:13;9.90;99.90
47791;DHT22;33547;49.044;1.156;2023-03-19T07:10:45;9.80;99.90
47791;DHT22;33547;49.044;1.156;2023-03-19T07:13:44;10.00;99.90
47791;DHT22;33547;49.044;1.156;2023-03-19T07:19:37;9.90;99.90
47791;DHT22;33547;49.044;1.156;2023-03-19T07:27:47;10.00;99.90
47791;DHT22;33547;49.044;1.156;2023-03-19T07:30:22;10.00;99.90
47791;DHT22;33547;49.044;1.156;2023-03-19T07:33:09;10.10;99.90
47791;DHT22;33547;49.044;1.156;2023-03-19T07:35:52;10.20;99.90
47791;DHT22;33547;49.044;1.156;2023-03-19T07:41:44;10.30;99.90
47791;DHT22;33547;49.044;1.156;2023-03-19T07:44:36;10.30;99.90
47791;DHT22;33547;49.044;1.156;2023-03-19T07:50:30;10.70;99.90
47791;DHT22;33547;49.044;1.156;2023-03-19T07:53:27;10.70;99.90
47791;DHT22;33547;49.044;1.156;2023-03-19T07:59:38;10.70;99.90
47791;DHT22;33547;49.044;1.156;2023-03-19T08:08:24;10.50;99.90
47791;DHT22;33547;49.044;1.156;2023-03-19T08:11:02;10.30;99.90
47791;DHT22;33547;49.044;1.156;2023-03-19T08:13:28;10.40;99.90
47791;DHT22;33547;49.044;1.156;2023-03-19T08:15:54;10.30;99.90
47791;DHT22;33547;49.044;1.156;2023-03-19T08:18:20;10.20;99.90
47791;DHT22;33547;49.044;1.156;2023-03-19T08:20:46;10.10;99.90
47791;DHT22;33547;49.044;1.156;2023-03-19T08:23:12;10.20;99.90
47791;DHT22;33547;49.044;1.156;2023-03-19T08:25:38;10.10;99.90
47791;DHT22;33547;49.044;1.156;2023-03-19T08:28:03;10.40;99.90
47791;DHT22;33547;49.044;1.156;2023-03-19T08:30:29;10.30;99.90
47791;DHT22;33547;49.044;1.156;2023-03-19T08:32:55;10.30;99.90
47791;DHT22;33547;49.044;1.156;2023-03-19T08:35:20;10.30;99.90
47791;DHT22;33547;49.044;1.156;2023-03-19T08:37:46;10.30;99.90
47791;DHT22;33547;49.044;1.156;2023-03-19T08:40:12;10.50;99.90
47791;DHT22;33547;49.044;1.156;2023-03-19T08:42:38;10.50;99.90
47791;DHT22;33547;49.044;1.156;2023-03-19T08:45:06;10.80;99.90
47791;DHT22;33547;49.044;1.156;2023-03-19T08:47:32;11.20;99.90
47791;DHT22;33547;49.044;1.156;2023-03-19T08:49:58;11.40;99.90
47791;DHT22;33547;49.044;1.156;2023-03-19T08:52:23;11.50;99.90
47791;DHT22;33547;49.044;1.156;2023-03-19T08:54:49;11.50;99.90
47791;DHT22;33547;49.044;1.156;2023-03-19T08:57:14;11.70;99.90
47791;DHT22;33547;49.044;1.156;2023-03-19T08:59:40;11.80;99.90
47791;DHT22;33547;49.044;1.156;2023-03-19T09:02:05;11.60;99.90
47791;DHT22;33547;49.044;1.156;2023-03-19T09:04:31;11.40;99.90
47791;DHT22;33547;49.044;1.156;2023-03-19T09:07:01;11.30;99.90
47791;DHT22;33547;49.044;1.156;2023-03-19T09:09:27;11.40;99.90
47791;DHT22;33547;49.044;1.156;2023-03-19T09:11:52;11.30;99.90
47791;DHT22;33547;49.044;1.156;2023-03-19T09:14:18;11.50;99.90
47791;DHT22;33547;49.044;1.156;2023-03-19T09:16:47;11.20;99.90
47791;DHT22;33547;49.044;1.156;2023-03-19T09:19:12;11.30;99.90
47791;DHT22;33547;49.044;1.156;2023-03-19T09:21:38;11.30;99.90
47791;DHT22;33547;49.044;1.156;2023-03-19T09:24:04;11.10;99.90
47791;DHT22;33547;49.044;1.156;2023-03-19T09:26:30;11.10;99.90
47791;DHT22;33547;49.044;1.156;2023-03-19T09:28:55;11.10;99.90
47791;DHT22;33547;49.044;1.156;2023-03-19T09:31:22;11.30;99.90
47791;DHT22;33547;49.044;1.156;2023-03-19T09:33:48;11.30;99.90
47791;DHT22;33547;49.044;1.156;2023-03-19T09:36:13;11.30;99.90
47791;DHT22;33547;49.044;1.156;2023-03-19T09:38:39;11.70;99.90
47791;DHT22;33547;49.044;1.156;2023-03-19T09:41:09;12.20;99.90
47791;DHT22;33547;49.044;1.156;2023-03-19T09:43:49;12.40;99.90
47791;DHT22;33547;49.044;1.156;2023-03-19T09:46:21;12.40;99.90
47791;DHT22;33547;49.044;1.156;2023-03-19T09:48:53;12.40;99.90
47791;DHT22;33547;49.044;1.156;2023-03-19T09:51:32;12.40;99.90
47791;DHT22;33547;49.044;1.156;2023-03-19T09:54:01;12.20;99.90
47791;DHT22;33547;49.044;1.156;2023-03-19T09:56:29;12.00;99.90
47791;DHT22;33547;49.044;1.156;2023-03-19T09:58:55;11.80;99.90
47791;DHT22;33547;49.044;1.156;2023-03-19T10:01:29;11.70;99.90
47791;DHT22;33547;49.044;1.156;2023-03-19T10:11:44;13.10;99.90
47791;DHT22;33547;49.044;1.156;2023-03-19T10:16:43;15.00;99.90
47791;DHT22;33547;49.044;1.156;2023-03-19T10:19:11;14.40;99.90
47791;DHT22;33547;49.044;1.156;2023-03-19T10:21:42;13.90;99.90
47791;DHT22;33547;49.044;1.156;2023-03-19T10:24:13;13.40;99.90
47791;DHT22;33547;49.044;1.156;2023-03-19T10:26:40;13.30;99.90
47791;DHT22;33547;49.044;1.156;2023-03-19T10:29:13;13.00;99.90
47791;DHT22;33547;49.044;1.156;2023-03-19T10:31:41;13.10;99.90
47791;DHT22;33547;49.044;1.156;2023-03-19T10:34:10;12.90;99.90
47791;DHT22;33547;49.044;1.156;2023-03-19T10:36:38;12.80;99.90
47791;DHT22;33547;49.044;1.156;2023-03-19T10:39:04;12.40;99.90
47791;DHT22;33547;49.044;1.156;2023-03-19T10:43:58;12.10;99.90
47791;DHT22;33547;49.044;1.156;2023-03-19T10:46:24;11.90;99.90
47791;DHT22;33547;49.044;1.156;2023-03-19T10:48:50;11.80;99.90
47791;DHT22;33547;49.044;1.156;2023-03-19T10:51:16;11.80;99.90
47791;DHT22;33547;49.044;1.156;2023-03-19T10:53:42;11.70;99.90
47791;DHT22;33547;49.044;1.156;2023-03-19T10:56:16;11.80;99.90
47791;DHT22;33547;49.044;1.156;2023-03-19T10:58:42;11.80;99.90
47791;DHT22;33547;49.044;1.156;2023-03-19T11:01:19;12.10;99.90
47791;DHT22;33547;49.044;1.156;2023-03-19T11:06:26;12.50;99.90
47791;DHT22;33547;49.044;1.156;2023-03-19T11:11:31;11.80;99.90
47791;DHT22;33547;49.044;1.156;2023-03-19T11:13:58;11.60;99.90
47791;DHT22;33547;49.044;1.156;2023-03-19T11:16:29;11.30;99.90
47791;DHT22;33547;49.044;1.156;2023-03-19T11:18:55;11.20;99.90
47791;DHT22;33547;49.044;1.156;2023-03-19T11:21:26;11.40;99.90
47791;DHT22;33547;49.044;1.156;2023-03-19T11:23:57;11.70;99.90
47791;DHT22;33547;49.044;1.156;2023-03-19T11:26:23;11.90;99.90
47791;DHT22;33547;49.044;1.156;2023-03-19T11:28:53;11.70;99.90
47791;DHT22;33547;49.044;1.156;2023-03-19T11:31:27;11.60;99.90
47791;DHT22;33547;49.044;1.156;2023-03-19T11:34:19;11.30;99.90
47791;DHT22;33547;49.044;1.156;2023-03-19T11:39:26;10.80;99.90
47791;DHT22;33547;49.044;1.156;2023-03-19T11:47:37;10.70;99.90
47791;DHT22;33547;49.044;1.156;2023-03-19T12:05:20;11.90;99.90
47791;DHT22;33547;49.044;1.156;2023-03-19T12:18:22;12.20;99.90
47791;DHT22;33547;49.044;1.156;2023-03-19T12:25:57;13.10;99.90
47791;DHT22;33547;49.044;1.156;2023-03-19T12:28:29;13.20;99.90
47791;DHT22;33547;49.044;1.156;2023-03-19T12:33:36;14.60;99.90
47791;DHT22;33547;49.044;1.156;2023-03-19T12:36:08;14.70;99.90
47791;DHT22;33547;49.044;1.156;2023-03-19T12:38:37;13.20;99.90
47791;DHT22;33547;49.044;1.156;2023-03-19T12:48:41;11.50;99.90
47791;DHT22;33547;49.044;1.156;2023-03-19T12:51:09;11.70;99.90
47791;DHT22;33547;49.044;1.156;2023-03-19T12:53:44;11.60;99.90
47791;DHT22;33547;49.044;1.156;2023-03-19T12:56:12;11.60;99.90
47791;DHT22;33547;49.044;1.156;2023-03-19T12:58:47;12.00;99.90
47791;DHT22;33547;49.044;1.156;2023-03-19T13:01:58;12.30;99.90
47791;DHT22;33547;49.044;1.156;2023-03-19T13:04:13;12.70;99.90
47791;DHT22;33547;49.044;1.156;2023-03-19T13:06:54;12.90;99.90
47791;DHT22;33547;49.044;1.156;2023-03-19T13:11:53;13.20;99.90
47791;DHT22;33547;49.044;1.156;2023-03-19T13:14:24;13.10;99.90
47791;DHT22;33547;49.044;1.156;2023-03-19T13:17:39;12.70;99.90
47791;DHT22;33547;49.044;1.156;2023-03-19T13:22:03;12.70;99.90
47791;DHT22;33547;49.044;1.156;2023-03-19T13:24:36;12.90;99.90
47791;DHT22;33547;49.044;1.156;2023-03-19T13:27:03;13.20;99.90
47791;DHT22;33547;49.044;1.156;2023-03-19T13:29:31;13.20;99.90
47791;DHT22;33547;49.044;1.156;2023-03-19T13:32:03;13.20;99.90
47791;DHT22;33547;49.044;1.156;2023-03-19T13:34:33;13.30;99.90
47791;DHT22;33547;49.044;1.156;2023-03-19T13:37:00;13.30;99.90
47791;DHT22;33547;49.044;1.156;2023-03-19T13:39:29;12.90;99.90
47791;DHT22;33547;49.044;1.156;2023-03-19T13:46:59;12.50;99.90
47791;DHT22;33547;49.044;1.156;2023-03-19T13:49:26;12.60;99.90
47791;DHT22;33547;49.044;1.156;2023-03-19T13:51:53;12.90;99.90
47791;DHT22;33547;49.044;1.156;2023-03-19T13:54:19;13.10;99.90
47791;DHT22;33547;49.044;1.156;2023-03-19T13:56:54;12.90;99.90
47791;DHT22;33547;49.044;1.156;2023-03-19T13:59:24;12.90;99.90
47791;DHT22;33547;49.044;1.156;2023-03-19T14:01:51;13.10;99.90
47791;DHT22;33547;49.044;1.156;2023-03-19T14:06:52;12.90;99.90
47791;DHT22;33547;49.044;1.156;2023-03-19T14:09:39;12.40;99.90
47791;DHT22;33547;49.044;1.156;2023-03-19T14:14:48;12.10;99.90
47791;DHT22;33547;49.044;1.156;2023-03-19T14:17:19;12.20;99.90
47791;DHT22;33547;49.044;1.156;2023-03-19T14:19:45;12.30;99.90
47791;DHT22;33547;49.044;1.156;2023-03-19T14:22:28;12.50;99.90
47791;DHT22;33547;49.044;1.156;2023-03-19T14:27:38;12.70;99.90
47791;DHT22;33547;49.044;1.156;2023-03-19T14:30:09;12.50;99.90
47791;DHT22;33547;49.044;1.156;2023-03-19T14:32:35;12.30;99.90
47791;DHT22;33547;49.044;1.156;2023-03-19T14:35:05;12.30;99.90
47791;DHT22;33547;49.044;1.156;2023-03-19T14:37:33;12.20;99.90
47791;DHT22;33547;49.044;1.156;2023-03-19T14:42:42;12.80;99.90
47791;DHT22;33547;49.044;1.156;2023-03-19T14:50:15;13.10;99.90
47791;DHT22;33547;49.044;1.156;2023-03-19T14:55:17;13.00;99.90
47791;DHT22;33547;49.044;1.156;2023-03-19T14:57:43;12.80;99.90
47791;DHT22;33547;49.044;1.156;2023-03-19T15:00:12;12.70;99.90
47791;DHT22;33547;49.044;1.156;2023-03-19T15:02:40;12.70;99.90
47791;DHT22;33547;49.044;1.156;2023-03-19T15:05:12;12.40;99.90
47791;DHT22;33547;49.044;1.156;2023-03-19T15:08:04;12.40;99.90
47791;DHT22;33547;49.044;1.156;2023-03-19T15:18:17;12.10;99.90
47791;DHT22;33547;49.044;1.156;2023-03-19T15:20:46;12.30;99.90
47791;DHT22;33547;49.044;1.156;2023-03-19T15:23:15;12.50;99.90
47791;DHT22;33547;49.044;1.156;2023-03-19T15:25:49;12.60;99.90
47791;DHT22;33547;49.044;1.156;2023-03-19T15:28:16;12.60;99.90
47791;DHT22;33547;49.044;1.156;2023-03-19T15:30:42;12.80;99.90
47791;DHT22;33547;49.044;1.156;2023-03-19T15:33:20;12.80;99.90
47791;DHT22;33547;49.044;1.156;2023-03-19T15:35:53;12.70;99.90
47791;DHT22;33547;49.044;1.156;2023-03-19T15:38:21;12.70;99.90
47791;DHT22;33547;49.044;1.156;2023-03-19T15:40:48;12.80;99.90
47791;DHT22;33547;49.044;1.156;2023-03-19T15:43:14;12.50;99.90
47791;DHT22;33547;49.044;1.156;2023-03-19T15:45:41;12.30;99.90
47791;DHT22;33547;49.044;1.156;2023-03-19T15:48:17;12.40;99.90
47791;DHT22;33547;49.044;1.156;2023-03-19T15:50:47;12.50;99.90
47791;DHT22;33547;49.044;1.156;2023-03-19T15:53:15;12.30;99.90
47791;DHT22;33547;49.044;1.156;2023-03-19T15:55:42;12.30;99.90
47791;DHT22;33547;49.044;1.156;2023-03-19T15:58:11;12.20;99.90
47791;DHT22;33547;49.044;1.156;2023-03-19T16:00:40;12.10;99.90
47791;DHT22;33547;49.044;1.156;2023-03-19T16:03:06;11.90;99.90
47791;DHT22;33547;49.044;1.156;2023-03-19T16:05:35;11.90;99.90
47791;DHT22;33547;49.044;1.156;2023-03-19T16:08:02;11.50;99.90
47791;DHT22;33547;49.044;1.156;2023-03-19T16:12:58;11.20;99.90
47791;DHT22;33547;49.044;1.156;2023-03-19T16:20:41;10.90;99.90
47791;DHT22;33547;49.044;1.156;2023-03-19T16:23:08;11.00;99.90
47791;DHT22;33547;49.044;1.156;2023-03-19T16:25:38;11.10;99.90
47791;DHT22;33547;49.044;1.156;2023-03-19T16:28:05;11.10;99.90
47791;DHT22;33547;49.044;1.156;2023-03-19T16:30:30;10.90;99.90
47791;DHT22;33547;49.044;1.156;2023-03-19T16:33:00;10.80;99.90
47791;DHT22;33547;49.044;1.156;2023-03-19T16:35:27;10.70;99.90
47791;DHT22;33547;49.044;1.156;2023-03-19T16:37:52;10.50;99.90
47791;DHT22;33547;49.044;1.156;2023-03-19T16:47:39;10.30;99.90
47791;DHT22;33547;49.044;1.156;2023-03-19T16:50:04;10.20;99.90
47791;DHT22;33547;49.044;1.156;2023-03-19T16:52:30;10.20;99.90
47791;DHT22;33547;49.044;1.156;2023-03-19T16:54:56;10.20;99.90
47791;DHT22;33547;49.044;1.156;2023-03-19T16:57:22;10.20;99.90
47791;DHT22;33547;49.044;1.156;2023-03-19T16:59:48;10.30;99.90
47791;DHT22;33547;49.044;1.156;2023-03-19T17:02:14;10.30;99.90
47791;DHT22;33547;49.044;1.156;2023-03-19T17:04:41;10.30;99.90
47791;DHT22;33547;49.044;1.156;2023-03-19T17:07:06;10.10;99.90
47791;DHT22;33547;49.044;1.156;2023-03-19T17:09:32;10.00;99.90
47791;DHT22;33547;49.044;1.156;2023-03-19T17:11:58;9.90;99.90
47791;DHT22;33547;49.044;1.156;2023-03-19T17:14:23;9.90;99.90
47791;DHT22;33547;49.044;1.156;2023-03-19T17:16:49;9.80;99.90
47791;DHT22;33547;49.044;1.156;2023-03-19T17:19:19;9.80;99.90
47791;DHT22;33547;49.044;1.156;2023-03-19T17:21:46;9.70;99.90
47791;DHT22;33547;49.044;1.156;2023-03-19T17:24:19;9.60;99.90
47791;DHT22;33547;49.044;1.156;2023-03-19T17:26:46;9.60;99.90
47791;DHT22;33547;49.044;1.156;2023-03-19T17:29:11;9.50;99.90
47791;DHT22;33547;49.044;1.156;2023-03-19T17:31:36;9.50;99.90
47791;DHT22;33547;49.044;1.156;2023-03-19T17:34:03;9.50;99.90
47791;DHT22;33547;49.044;1.156;2023-03-19T17:36:30;9.40;99.90
47791;DHT22;33547;49.044;1.156;2023-03-19T17:38:55;9.40;99.90
47791;DHT22;33547;49.044;1.156;2023-03-19T17:41:21;9.40;99.90
47791;DHT22;33547;49.044;1.156;2023-03-19T17:43:47;9.40;99.90
47791;DHT22;33547;49.044;1.156;2023-03-19T17:46:19;9.30;99.90
47791;DHT22;33547;49.044;1.156;2023-03-19T17:48:46;9.30;99.90
47791;DHT22;33547;49.044;1.156;2023-03-19T17:51:11;9.20;99.90
47791;DHT22;33547;49.044;1.156;2023-03-19T17:53:37;9.30;99.90
47791;DHT22;33547;49.044;1.156;2023-03-19T17:56:03;9.20;99.90
47791;DHT22;33547;49.044;1.156;2023-03-19T17:58:29;9.20;99.90
47791;DHT22;33547;49.044;1.156;2023-03-19T18:00:55;9.10;99.90
47791;DHT22;33547;49.044;1.156;2023-03-19T18:03:21;9.10;99.90
47791;DHT22;33547;49.044;1.156;2023-03-19T18:05:48;9.00;99.90
47791;DHT22;33547;49.044;1.156;2023-03-19T18:08:15;9.00;99.90
47791;DHT22;33547;49.044;1.156;2023-03-19T18:10:41;9.00;99.90
47791;DHT22;33547;49.044;1.156;2023-03-19T18:13:07;9.00;99.90
47791;DHT22;33547;49.044;1.156;2023-03-19T18:15:33;8.80;99.90
47791;DHT22;33547;49.044;1.156;2023-03-19T18:17:59;8.80;99.90
47791;DHT22;33547;49.044;1.156;2023-03-19T18:20:27;8.80;99.90
47791;DHT22;33547;49.044;1.156;2023-03-19T18:22:53;8.80;99.90
47791;DHT22;33547;49.044;1.156;2023-03-19T18:25:20;8.60;99.90
47791;DHT22;33547;49.044;1.156;2023-03-19T18:27:46;8.30;99.90
47791;DHT22;33547;49.044;1.156;2023-03-19T18:30:13;8.20;99.90
47791;DHT22;33547;49.044;1.156;2023-03-19T18:32:39;8.20;99.90
47791;DHT22;33547;49.044;1.156;2023-03-19T18:35:12;8.10;99.90
47791;DHT22;33547;49.044;1.156;2023-03-19T18:37:38;7.80;99.90
47791;DHT22;33547;49.044;1.156;2023-03-19T18:40:04;7.90;99.90
47791;DHT22;33547;49.044;1.156;2023-03-19T18:42:30;7.70;99.90
47791;DHT22;33547;49.044;1.156;2023-03-19T18:44:55;7.70;99.90
47791;DHT22;33547;49.044;1.156;2023-03-19T18:47:20;7.60;99.90
47791;DHT22;33547;49.044;1.156;2023-03-19T18:49:46;7.30;99.90
47791;DHT22;33547;49.044;1.156;2023-03-19T18:52:12;7.40;99.90
47791;DHT22;33547;49.044;1.156;2023-03-19T18:54:38;7.30;99.90
47791;DHT22;33547;49.044;1.156;2023-03-19T18:57:04;7.30;99.90
47791;DHT22;33547;49.044;1.156;2023-03-19T18:59:30;7.10;99.90
47791;DHT22;33547;49.044;1.156;2023-03-19T19:02:00;7.00;99.90
47791;DHT22;33547;49.044;1.156;2023-03-19T19:04:26;7.00;99.90
47791;DHT22;33547;49.044;1.156;2023-03-19T19:06:51;7.00;99.90
47791;DHT22;33547;49.044;1.156;2023-03-19T19:09:18;6.90;99.90
47791;DHT22;33547;49.044;1.156;2023-03-19T19:11:45;6.80;99.90
47791;DHT22;33547;49.044;1.156;2023-03-19T19:14:15;6.80;99.90
47791;DHT22;33547;49.044;1.156;2023-03-19T19:16:43;6.80;99.90
47791;DHT22;33547;49.044;1.156;2023-03-19T19:19:15;6.60;99.90
47791;DHT22;33547;49.044;1.156;2023-03-19T19:21:41;6.60;99.90
47791;DHT22;33547;49.044;1.156;2023-03-19T19:24:07;6.40;99.90
47791;DHT22;33547;49.044;1.156;2023-03-19T19:26:32;6.40;99.90
47791;DHT22;33547;49.044;1.156;2023-03-19T19:28:58;6.30;99.90
47791;DHT22;33547;49.044;1.156;2023-03-19T19:31:31;6.20;99.90
47791;DHT22;33547;49.044;1.156;2023-03-19T19:33:58;6.20;99.90
47791;DHT22;33547;49.044;1.156;2023-03-19T19:36:27;6.20;99.90
47791;DHT22;33547;49.044;1.156;2023-03-19T19:39:11;6.10;99.90
47791;DHT22;33547;49.044;1.156;2023-03-19T19:44:25;6.10;99.90
47791;DHT22;33547;49.044;1.156;2023-03-19T19:47:14;5.90;99.90
47791;DHT22;33547;49.044;1.156;2023-03-19T19:49:46;5.90;99.90
47791;DHT22;33547;49.044;1.156;2023-03-19T19:52:18;5.90;99.90
47791;DHT22;33547;49.044;1.156;2023-03-19T19:54:50;5.70;99.90
47791;DHT22;33547;49.044;1.156;2023-03-19T19:57:26;5.70;99.90
47791;DHT22;33547;49.044;1.156;2023-03-19T20:00:09;5.70;99.90
47791;DHT22;33547;49.044;1.156;2023-03-19T20:02:58;5.70;99.90
47791;DHT22;33547;49.044;1.156;2023-03-19T20:05:33;5.50;99.90
47791;DHT22;33547;49.044;1.156;2023-03-19T20:08:04;5.40;99.90
47791;DHT22;33547;49.044;1.156;2023-03-19T20:10:36;5.30;99.90
47791;DHT22;33547;49.044;1.156;2023-03-19T20:13:03;5.30;99.90
47791;DHT22;33547;49.044;1.156;2023-03-19T20:15:52;5.30;99.90
47791;DHT22;33547;49.044;1.156;2023-03-19T20:18:29;5.20;99.90
47791;DHT22;33547;49.044;1.156;2023-03-19T20:21:18;5.20;99.90
47791;DHT22;33547;49.044;1.156;2023-03-19T20:23:49;5.20;99.90
47791;DHT22;33547;49.044;1.156;2023-03-19T20:26:45;5.10;99.90
47791;DHT22;33547;49.044;1.156;2023-03-19T20:32:35;5.10;99.90
47791;DHT22;33547;49.044;1.156;2023-03-19T20:35:12;5.10;99.90
47791;DHT22;33547;49.044;1.156;2023-03-19T20:38:13;5.00;99.90
47791;DHT22;33547;49.044;1.156;2023-03-19T20:40:47;4.90;99.90
47791;DHT22;33547;49.044;1.156;2023-03-19T20:49:26;4.70;99.90
47791;DHT22;33547;49.044;1.156;2023-03-19T20:51:58;4.80;99.90
47791;DHT22;33547;49.044;1.156;2023-03-19T20:54:27;4.60;99.90
47791;DHT22;33547;49.044;1.156;2023-03-19T20:57:18;4.70;99.90
47791;DHT22;33547;49.044;1.156;2023-03-19T21:00:10;4.60;99.90
47791;DHT22;33547;49.044;1.156;2023-03-19T21:02:47;4.60;99.90
47791;DHT22;33547;49.044;1.156;2023-03-19T21:05:19;4.50;99.90
47791;DHT22;33547;49.044;1.156;2023-03-19T21:08:00;4.50;99.90
47791;DHT22;33547;49.044;1.156;2023-03-19T21:10:56;4.50;99.90
47791;DHT22;33547;49.044;1.156;2023-03-19T21:16:20;4.40;99.90
47791;DHT22;33547;49.044;1.156;2023-03-19T21:19:00;4.50;99.90
47791;DHT22;33547;49.044;1.156;2023-03-19T21:21:32;4.40;99.90
47791;DHT22;33547;49.044;1.156;2023-03-19T21:30:33;4.30;99.90
47791;DHT22;33547;49.044;1.156;2023-03-19T21:33:13;4.10;99.90
47791;DHT22;33547;49.044;1.156;2023-03-19T21:35:46;4.20;99.90
47791;DHT22;33547;49.044;1.156;2023-03-19T21:47:47;4.10;99.90
47791;DHT22;33547;49.044;1.156;2023-03-19T21:50:28;4.00;99.90
47791;DHT22;33547;49.044;1.156;2023-03-19T21:53:07;4.00;99.90
47791;DHT22;33547;49.044;1.156;2023-03-19T21:55:41;3.90;99.90
47791;DHT22;33547;49.044;1.156;2023-03-19T21:58:31;3.90;99.90
47791;DHT22;33547;49.044;1.156;2023-03-19T22:01:08;3.80;99.90
47791;DHT22;33547;49.044;1.156;2023-03-19T22:06:48;3.70;99.90
47791;DHT22;33547;49.044;1.156;2023-03-19T22:09:36;3.80;99.90
47791;DHT22;33547;49.044;1.156;2023-03-19T22:12:26;3.80;99.90
47791;DHT22;33547;49.044;1.156;2023-03-19T22:50:21;3.40;99.90
47791;DHT22;33547;49.044;1.156;2023-03-19T22:56:29;3.20;99.90
47791;DHT22;33547;49.044;1.156;2023-03-19T23:09:07;3.00;99.90
47791;DHT22;33547;49.044;1.156;2023-03-19T23:11:33;3.00;99.90
47791;DHT22;33547;49.044;1.156;2023-03-19T23:13:58;3.00;99.90
47791;DHT22;33547;49.044;1.156;2023-03-19T23:16:24;2.90;99.90
47791;DHT22;33547;49.044;1.156;2023-03-19T23:18:50;2.90;99.90
47791;DHT22;33547;49.044;1.156;2023-03-19T23:21:16;2.90;99.90
47791;DHT22;33547;49.044;1.156;2023-03-19T23:23:41;2.90;99.90
47791;DHT22;33547;49.044;1.156;2023-03-19T23:26:23;2.90;99.90
47791;DHT22;33547;49.044;1.156;2023-03-19T23:28:50;2.80;99.90
47791;DHT22;33547;49.044;1.156;2023-03-19T23:31:15;2.80;99.90
47791;DHT22;33547;49.044;1.156;2023-03-19T23:33:41;2.70;99.90
47791;DHT22;33547;49.044;1.156;2023-03-19T23:36:06;2.70;99.90
47791;DHT22;33547;49.044;1.156;2023-03-19T23:38:32;2.70;99.90
47791;DHT22;33547;49.044;1.156;2023-03-19T23:40:57;2.80;99.90
47791;DHT22;33547;49.044;1.156;2023-03-19T23:43:24;2.80;99.90
47791;DHT22;33547;49.044;1.156;2023-03-19T23:45:51;2.70;99.90
47791;DHT22;33547;49.044;1.156;2023-03-19T23:48:19;2.80;99.90
47791;DHT22;33547;49.044;1.156;2023-03-19T23:50:45;2.70;99.90
47791;DHT22;33547;49.044;1.156;2023-03-19T23:53:18;2.70;99.90
47791;DHT22;33547;49.044;1.156;2023-03-19T23:55:45;2.60;99.90
47791;DHT22;33547;49.044;1.156;2023-03-19T23:58:11;2.60;99.90
